createdAt,value
2023-01-17T00:00:23.221Z,3
2023-01-17T00:02:06.792Z,2
2023-01-17T00:03:50.475Z,3
2023-01-17T00:05:34.179Z,2
2023-01-17T00:07:17.885Z,2
2023-01-17T00:09:01.647Z,2
2023-01-17T00:10:45.409Z,2
2023-01-17T00:12:29.010Z,2
2023-01-17T00:14:12.690Z,2
2023-01-17T00:15:56.424Z,3
2023-01-17T00:17:40.176Z,10
2023-01-17T00:19:23.799Z,11
2023-01-17T00:21:07.664Z,11
2023-01-17T00:22:51.199Z,11
2023-01-17T00:24:34.936Z,3
2023-01-17T00:26:18.627Z,2
2023-01-17T00:28:02.417Z,2
2023-01-17T00:29:46.080Z,3
2023-01-17T00:31:29.826Z,3
2023-01-17T00:33:13.522Z,3
2023-01-17T00:34:57.137Z,2
2023-01-17T00:36:40.840Z,3
2023-01-17T00:38:24.566Z,3
2023-01-17T00:40:08.258Z,3
2023-01-17T00:41:51.936Z,3
2023-01-17T00:43:35.658Z,3
2023-01-17T00:45:19.340Z,2
2023-01-17T00:47:03.054Z,2
2023-01-17T00:48:46.766Z,3
2023-01-17T00:50:30.439Z,11
2023-01-17T00:52:14.210Z,11
2023-01-17T00:53:57.855Z,11
2023-01-17T00:55:41.619Z,3
2023-01-17T00:57:25.254Z,2
2023-01-17T00:59:08.971Z,2
2023-01-17T01:00:52.663Z,3
2023-01-17T01:02:36.369Z,2
2023-01-17T01:04:20.067Z,2
2023-01-17T01:06:03.850Z,3
2023-01-17T01:07:47.484Z,3
2023-01-17T01:09:31.179Z,2
2023-01-17T01:11:14.883Z,3
2023-01-17T01:12:58.588Z,2
2023-01-17T01:14:42.292Z,3
2023-01-17T01:16:25.991Z,3
2023-01-17T01:18:09.691Z,3
2023-01-17T01:19:53.398Z,2
2023-01-17T01:21:37.109Z,11
2023-01-17T01:23:20.797Z,11
2023-01-17T01:25:04.504Z,10
2023-01-17T01:28:32.017Z,3
2023-01-17T01:30:15.617Z,2
2023-01-17T01:31:59.311Z,2
2023-01-17T01:33:43.017Z,3
2023-01-17T01:35:26.720Z,3
2023-01-17T01:37:10.417Z,2
2023-01-17T01:38:54.124Z,3
2023-01-17T01:40:37.822Z,2
2023-01-17T01:42:21.538Z,2
2023-01-17T01:44:05.246Z,2
2023-01-17T01:45:48.931Z,2
2023-01-17T01:47:32.737Z,3
2023-01-17T01:49:16.345Z,3
2023-01-17T01:51:00.043Z,2
2023-01-17T01:52:43.761Z,2
2023-01-17T01:54:27.448Z,3
2023-01-17T01:56:11.190Z,2
2023-01-17T01:57:54.855Z,2
2023-01-17T01:59:38.556Z,3
2023-01-17T02:01:22.288Z,2
2023-01-17T02:03:05.974Z,1
2023-01-17T02:04:49.660Z,2
2023-01-17T02:06:33.361Z,2
2023-01-17T02:08:17.107Z,2
2023-01-17T02:10:00.773Z,3
2023-01-17T02:11:44.494Z,2
2023-01-17T02:13:28.178Z,2
2023-01-17T02:15:11.884Z,2
2023-01-17T02:16:55.585Z,2
2023-01-17T02:18:39.283Z,3
2023-01-17T02:20:22.993Z,2
2023-01-17T02:22:06.722Z,3
2023-01-17T02:23:50.410Z,2
2023-01-17T02:25:34.107Z,2
2023-01-17T02:27:17.796Z,2
2023-01-17T02:29:01.503Z,2
2023-01-17T02:30:45.209Z,2
2023-01-17T02:32:28.903Z,3
2023-01-17T02:34:12.615Z,2
2023-01-17T02:35:56.310Z,2
2023-01-17T02:37:40.044Z,3
2023-01-17T02:39:23.742Z,2
2023-01-17T02:41:07.417Z,2
2023-01-17T02:42:51.132Z,2
2023-01-17T02:44:34.837Z,2
2023-01-17T02:46:18.529Z,1
2023-01-17T02:48:02.298Z,2
2023-01-17T02:49:45.927Z,2
2023-01-17T02:51:29.639Z,2
2023-01-17T02:53:13.352Z,2
2023-01-17T02:54:57.033Z,1
2023-01-17T02:56:40.740Z,3
2023-01-17T02:58:24.507Z,3
2023-01-17T03:00:08.157Z,3
2023-01-17T03:01:51.882Z,2
2023-01-17T03:03:35.556Z,2
2023-01-17T03:05:19.328Z,2
2023-01-17T03:07:02.971Z,2
2023-01-17T03:08:46.675Z,2
2023-01-17T03:10:30.363Z,1
2023-01-17T03:12:14.071Z,2
2023-01-17T03:13:57.785Z,2
2023-01-17T03:15:41.500Z,2
2023-01-17T03:17:25.173Z,3
2023-01-17T03:19:08.884Z,2
2023-01-17T03:20:52.590Z,3
2023-01-17T03:22:36.288Z,3
2023-01-17T03:24:19.996Z,2
2023-01-17T03:26:03.689Z,3
2023-01-17T03:27:47.391Z,2
2023-01-17T03:29:31.102Z,3
2023-01-17T03:31:14.799Z,2
2023-01-17T03:32:58.515Z,3
2023-01-17T03:34:42.208Z,2
2023-01-17T03:36:25.909Z,2
2023-01-17T03:38:09.614Z,2
2023-01-17T03:39:53.314Z,2
2023-01-17T03:41:37.015Z,2
2023-01-17T03:43:20.721Z,3
2023-01-17T03:45:04.437Z,3
2023-01-17T03:46:48.125Z,1
2023-01-17T03:48:31.826Z,3
2023-01-17T03:50:15.530Z,3
2023-01-17T03:51:59.244Z,2
2023-01-17T03:53:42.933Z,2
2023-01-17T03:55:26.634Z,2
2023-01-17T03:57:10.349Z,2
2023-01-17T03:58:54.031Z,2
2023-01-17T04:00:37.747Z,2
2023-01-17T04:02:21.443Z,2
2023-01-17T04:04:05.147Z,2
2023-01-17T04:05:48.839Z,2
2023-01-17T04:07:32.552Z,2
2023-01-17T04:09:16.242Z,2
2023-01-17T04:10:59.955Z,2
2023-01-17T04:12:43.649Z,2
2023-01-17T04:14:27.370Z,2
2023-01-17T04:16:11.063Z,3
2023-01-17T04:17:54.788Z,2
2023-01-17T04:21:22.184Z,3
2023-01-17T04:23:05.876Z,2
2023-01-17T04:24:49.572Z,3
2023-01-17T04:26:33.295Z,3
2023-01-17T04:28:16.998Z,2
2023-01-17T04:30:00.697Z,3
2023-01-17T04:31:44.389Z,2
2023-01-17T04:33:28.099Z,2
2023-01-17T04:35:11.796Z,3
2023-01-17T04:36:55.502Z,2
2023-01-17T04:38:39.200Z,3
2023-01-17T04:40:22.905Z,2
2023-01-17T04:42:06.620Z,2
2023-01-17T04:43:50.313Z,3
2023-01-17T04:45:34.008Z,2
2023-01-17T04:47:17.718Z,2
2023-01-17T04:50:45.118Z,2
2023-01-17T04:52:28.829Z,2
2023-01-17T04:54:12.526Z,2
2023-01-17T04:55:56.231Z,2
2023-01-17T04:57:39.999Z,2
2023-01-17T04:59:23.636Z,2
2023-01-17T05:01:07.338Z,2
2023-01-17T05:02:51.041Z,1
2023-01-17T05:04:34.755Z,2
2023-01-17T05:06:18.480Z,2
2023-01-17T05:08:02.152Z,2
2023-01-17T05:09:45.857Z,3
2023-01-17T05:11:29.549Z,2
2023-01-17T05:13:13.254Z,3
2023-01-17T05:14:56.959Z,3
2023-01-17T05:16:40.714Z,2
2023-01-17T05:18:24.392Z,2
2023-01-17T05:20:08.159Z,2
2023-01-17T05:21:51.770Z,2
2023-01-17T05:23:35.479Z,2
2023-01-17T05:25:19.172Z,2
2023-01-17T05:27:02.879Z,2
2023-01-17T05:28:46.587Z,1
2023-01-17T05:30:30.295Z,2
2023-01-17T05:32:13.983Z,2
2023-01-17T05:33:57.693Z,2
2023-01-17T05:35:41.393Z,2
2023-01-17T05:37:25.092Z,3
2023-01-17T05:39:08.840Z,2
2023-01-17T05:40:52.501Z,3
2023-01-17T05:42:36.199Z,2
2023-01-17T05:44:19.901Z,2
2023-01-17T05:46:03.600Z,1
2023-01-17T05:47:47.306Z,2
2023-01-17T05:49:31.021Z,2
2023-01-17T05:51:14.735Z,2
2023-01-17T05:52:58.418Z,2
2023-01-17T05:54:42.132Z,2
2023-01-17T05:56:25.825Z,2
2023-01-17T05:58:09.529Z,2
2023-01-17T05:59:53.224Z,2
2023-01-17T06:01:36.988Z,2
2023-01-17T06:03:20.637Z,2
2023-01-17T06:05:04.338Z,2
2023-01-17T06:06:48.036Z,2
2023-01-17T06:08:31.743Z,2
2023-01-17T06:10:15.447Z,2
2023-01-17T06:11:59.146Z,2
2023-01-17T06:13:42.877Z,2
2023-01-17T06:15:26.554Z,3
2023-01-17T06:17:10.270Z,2
2023-01-17T06:18:53.967Z,2
2023-01-17T06:20:37.659Z,2
2023-01-17T06:22:21.365Z,2
2023-01-17T06:24:05.091Z,2
2023-01-17T06:25:48.775Z,2
2023-01-17T06:27:32.476Z,3
2023-01-17T06:29:16.178Z,2
2023-01-17T06:30:59.882Z,2
2023-01-17T06:32:43.578Z,2
2023-01-17T06:34:27.290Z,3
2023-01-17T06:36:10.997Z,3
2023-01-17T06:37:54.685Z,3
2023-01-17T06:39:38.389Z,3
2023-01-17T06:41:22.096Z,4
2023-01-17T06:43:05.823Z,4
2023-01-17T06:44:49.500Z,5
2023-01-17T06:46:33.189Z,60
2023-01-17T06:48:16.906Z,60
2023-01-17T06:50:00.657Z,60
2023-01-17T06:51:44.309Z,59
2023-01-17T06:53:28.010Z,61
2023-01-17T06:55:11.715Z,62
2023-01-17T06:56:55.418Z,63
2023-01-17T06:58:39.171Z,66
2023-01-17T07:00:22.815Z,68
2023-01-17T07:02:06.595Z,71
2023-01-17T07:03:50.228Z,75
2023-01-17T07:05:33.951Z,80
2023-01-17T07:07:17.634Z,84
2023-01-17T07:09:01.633Z,91
2023-01-17T07:10:45.048Z,95
2023-01-17T07:12:28.755Z,102
2023-01-17T07:14:12.438Z,108
2023-01-17T07:15:56.154Z,119
2023-01-17T07:17:39.882Z,137
2023-01-17T07:19:23.563Z,153
2023-01-17T07:21:07.337Z,156
2023-01-17T07:22:50.999Z,158
2023-01-17T07:24:34.647Z,163
2023-01-17T07:26:18.374Z,183
2023-01-17T07:28:02.066Z,207
2023-01-17T07:29:45.766Z,185
2023-01-17T07:31:29.477Z,220
2023-01-17T07:33:13.280Z,227
2023-01-17T07:34:56.871Z,271
2023-01-17T07:36:40.744Z,270
2023-01-17T07:38:24.307Z,407
2023-01-17T07:40:08.018Z,488
2023-01-17T07:41:51.739Z,416
2023-01-17T07:43:35.395Z,454
2023-01-17T07:45:19.099Z,417
2023-01-17T07:47:02.789Z,374
2023-01-17T07:48:46.492Z,314
2023-01-17T07:50:30.248Z,327
2023-01-17T07:52:13.896Z,349
2023-01-17T07:53:57.655Z,337
2023-01-17T07:55:41.492Z,337
2023-01-17T07:57:25.003Z,333
2023-01-17T07:59:08.713Z,336
2023-01-17T08:00:52.418Z,353
2023-01-17T08:02:36.256Z,388
2023-01-17T08:04:19.845Z,445
2023-01-17T08:06:03.674Z,526
2023-01-17T08:07:47.225Z,558
2023-01-17T08:09:31.038Z,589
2023-01-17T08:11:14.721Z,585
2023-01-17T08:12:58.396Z,720
2023-01-17T08:14:42.183Z,729
2023-01-17T08:16:25.751Z,737
2023-01-17T08:18:09.498Z,718
2023-01-17T08:19:53.134Z,737
2023-01-17T08:21:36.842Z,737
2023-01-17T08:23:20.551Z,738
2023-01-17T08:26:47.964Z,738
2023-01-17T08:28:31.688Z,736
2023-01-17T08:30:15.371Z,739
2023-01-17T08:31:59.118Z,738
2023-01-17T08:33:42.815Z,737
2023-01-17T08:35:26.468Z,737
2023-01-17T08:37:10.286Z,737
2023-01-17T08:38:53.880Z,738
2023-01-17T08:40:37.654Z,737
2023-01-17T08:42:21.287Z,736
2023-01-17T08:44:04.998Z,737
2023-01-17T08:45:48.675Z,738
2023-01-17T08:47:32.464Z,738
2023-01-17T08:50:59.784Z,738
2023-01-17T08:52:43.481Z,738
2023-01-17T08:54:27.275Z,738
2023-01-17T08:56:10.891Z,737
2023-01-17T08:57:54.581Z,737
2023-01-17T08:59:38.293Z,738
2023-01-17T09:01:22.002Z,738
2023-01-17T09:03:05.704Z,641
2023-01-17T09:04:49.416Z,679
2023-01-17T09:06:33.119Z,737
2023-01-17T09:08:16.809Z,738
2023-01-17T09:10:00.521Z,738
2023-01-17T09:11:44.271Z,736
2023-01-17T09:13:27.936Z,738
2023-01-17T09:15:11.629Z,729
2023-01-17T09:16:55.334Z,737
2023-01-17T09:18:39.058Z,737
2023-01-17T09:20:22.731Z,736
2023-01-17T09:22:06.512Z,738
2023-01-17T09:23:50.141Z,738
2023-01-17T09:25:33.833Z,738
2023-01-17T09:27:17.557Z,738
2023-01-17T09:29:01.301Z,729
2023-01-17T09:30:44.948Z,739
2023-01-17T09:32:28.657Z,737
2023-01-17T09:34:12.349Z,737
2023-01-17T09:35:56.124Z,737
2023-01-17T09:37:39.833Z,738
2023-01-17T09:39:23.471Z,738
2023-01-17T09:41:07.163Z,737
2023-01-17T09:42:50.869Z,728
2023-01-17T09:44:34.607Z,739
2023-01-17T09:46:18.268Z,738
2023-01-17T09:48:01.972Z,737
2023-01-17T09:49:45.677Z,738
2023-01-17T09:51:29.477Z,738
2023-01-17T09:53:13.079Z,738
2023-01-17T09:54:56.790Z,738
2023-01-17T09:56:40.498Z,728
2023-01-17T09:58:24.315Z,738
2023-01-17T10:00:07.940Z,738
2023-01-17T10:01:51.585Z,738
2023-01-17T10:03:35.346Z,738
2023-01-17T10:05:18.995Z,738
2023-01-17T10:07:02.722Z,739
2023-01-17T10:08:46.425Z,738
2023-01-17T10:10:30.101Z,736
2023-01-17T10:12:13.911Z,738
2023-01-17T10:13:57.600Z,738
2023-01-17T10:15:41.340Z,739
2023-01-17T10:17:25.055Z,737
2023-01-17T10:19:08.624Z,737
2023-01-17T10:20:52.449Z,738
2023-01-17T10:22:36.011Z,739
2023-01-17T10:24:19.777Z,737
2023-01-17T10:26:03.562Z,738
2023-01-17T10:27:47.321Z,738
2023-01-17T10:29:30.985Z,739
2023-01-17T10:31:14.561Z,738
2023-01-17T10:32:58.420Z,738
2023-01-17T10:34:42.135Z,738
2023-01-17T10:36:25.813Z,738
2023-01-17T10:38:09.507Z,738
2023-01-17T10:39:53.162Z,738
2023-01-17T10:41:36.935Z,738
2023-01-17T10:43:20.512Z,738
2023-01-17T10:45:04.185Z,737
2023-01-17T10:46:47.933Z,738
2023-01-17T10:48:31.604Z,738
2023-01-17T10:50:15.336Z,739
2023-01-17T10:51:59.051Z,738
2023-01-17T10:53:42.656Z,738
2023-01-17T10:55:26.452Z,738
2023-01-17T10:57:10.097Z,738
2023-01-17T10:58:53.832Z,739
2023-01-17T11:00:37.545Z,738
2023-01-17T11:02:21.210Z,738
2023-01-17T11:04:04.868Z,738
2023-01-17T11:05:48.700Z,737
2023-01-17T11:07:32.451Z,739
2023-01-17T11:09:16.044Z,738
2023-01-17T11:10:59.684Z,737
2023-01-17T11:12:43.452Z,738
2023-01-17T11:14:27.166Z,738
2023-01-17T11:16:10.852Z,738
2023-01-17T11:17:54.524Z,737
2023-01-17T11:19:38.228Z,738
2023-01-17T11:21:22.032Z,739
2023-01-17T11:23:05.739Z,738
2023-01-17T11:24:49.507Z,737
2023-01-17T11:26:33.058Z,739
2023-01-17T11:28:16.715Z,739
2023-01-17T11:30:00.525Z,738
2023-01-17T11:31:44.130Z,737
2023-01-17T11:33:27.889Z,738
2023-01-17T11:35:11.520Z,739
2023-01-17T11:36:55.226Z,738
2023-01-17T11:38:38.962Z,729
2023-01-17T11:40:22.720Z,738
2023-01-17T11:42:06.337Z,739
2023-01-17T11:43:50.048Z,739
2023-01-17T11:45:33.754Z,738
2023-01-17T11:47:17.454Z,738
2023-01-17T11:49:01.163Z,739
2023-01-17T11:50:44.848Z,739
2023-01-17T11:52:28.572Z,738
2023-01-17T11:54:12.255Z,737
2023-01-17T11:55:55.980Z,738
2023-01-17T11:57:39.801Z,738
2023-01-17T11:59:23.359Z,739
2023-01-17T12:01:07.061Z,738
2023-01-17T12:02:50.783Z,739
2023-01-17T12:04:34.612Z,738
2023-01-17T12:06:18.382Z,739
2023-01-17T12:08:01.873Z,738
2023-01-17T12:09:45.582Z,738
2023-01-17T12:11:29.403Z,738
2023-01-17T12:13:13.111Z,739
2023-01-17T12:14:56.890Z,737
2023-01-17T12:16:40.475Z,738
2023-01-17T12:18:24.129Z,739
2023-01-17T12:20:07.927Z,739
2023-01-17T12:21:51.535Z,738
2023-01-17T12:23:35.354Z,738
2023-01-17T12:25:19.036Z,739
2023-01-17T12:27:02.734Z,738
2023-01-17T12:28:46.422Z,737
2023-01-17T12:30:30.005Z,738
2023-01-17T12:32:13.906Z,738
2023-01-17T12:33:57.413Z,739
2023-01-17T12:35:41.126Z,739
2023-01-17T12:37:25.003Z,738
2023-01-17T12:39:08.667Z,737
2023-01-17T12:40:52.403Z,738
2023-01-17T12:42:35.935Z,738
2023-01-17T12:44:19.673Z,738
2023-01-17T12:46:03.325Z,738
2023-01-17T12:47:47.128Z,738
2023-01-17T12:49:30.757Z,739
2023-01-17T12:51:14.488Z,739
2023-01-17T12:54:41.995Z,738
2023-01-17T12:56:25.597Z,737
2023-01-17T12:58:09.374Z,739
2023-01-17T12:59:52.983Z,738
2023-01-17T13:01:36.662Z,738
2023-01-17T13:03:20.461Z,739
2023-01-17T13:05:04.060Z,739
2023-01-17T13:06:47.756Z,737
2023-01-17T13:08:31.632Z,738
2023-01-17T13:10:15.226Z,737
2023-01-17T13:11:59.049Z,738
2023-01-17T13:13:42.632Z,739
2023-01-17T13:15:26.457Z,737
2023-01-17T13:17:10.081Z,737
2023-01-17T13:18:53.685Z,738
2023-01-17T13:20:37.448Z,739
2023-01-17T13:22:21.085Z,738
2023-01-17T13:24:04.797Z,736
2023-01-17T13:25:48.514Z,739
2023-01-17T13:27:32.289Z,739
2023-01-17T13:29:15.900Z,738
2023-01-17T13:30:59.640Z,737
2023-01-17T13:32:43.309Z,739
2023-01-17T13:34:26.998Z,738
2023-01-17T13:36:10.844Z,738
2023-01-17T13:37:54.420Z,737
2023-01-17T13:39:38.133Z,738
2023-01-17T13:41:21.966Z,739
2023-01-17T13:43:05.520Z,738
2023-01-17T13:44:49.237Z,738
2023-01-17T13:46:32.933Z,738
2023-01-17T13:48:16.640Z,738
2023-01-17T13:50:00.343Z,738
2023-01-17T13:51:44.030Z,738
2023-01-17T13:53:27.835Z,738
2023-01-17T13:55:11.436Z,724
2023-01-17T13:56:55.146Z,697
2023-01-17T13:58:38.842Z,662
2023-01-17T14:00:22.663Z,635
2023-01-17T14:02:06.244Z,615
2023-01-17T14:03:49.954Z,591
2023-01-17T14:05:33.663Z,566
2023-01-17T14:07:17.350Z,540
2023-01-17T14:09:01.059Z,511
2023-01-17T14:10:44.821Z,481
2023-01-17T14:12:28.523Z,458
2023-01-17T14:14:12.214Z,434
2023-01-17T14:15:55.909Z,415
2023-01-17T14:17:39.569Z,396
2023-01-17T14:19:23.303Z,376
2023-01-17T14:21:06.989Z,358
2023-01-17T14:22:50.677Z,342
2023-01-17T14:24:34.383Z,328
2023-01-17T14:26:18.081Z,315
2023-01-17T14:28:01.786Z,301
2023-01-17T14:29:45.476Z,288
2023-01-17T14:31:29.181Z,279
2023-01-17T14:33:12.891Z,267
2023-01-17T14:34:56.584Z,255
2023-01-17T14:36:40.307Z,244
2023-01-17T14:38:24.031Z,236
2023-01-17T14:40:07.710Z,227
2023-01-17T14:41:51.408Z,220
2023-01-17T14:43:35.121Z,212
2023-01-17T14:45:18.808Z,204
2023-01-17T14:47:02.570Z,197
2023-01-17T14:48:46.210Z,190
2023-01-17T14:50:29.924Z,182
2023-01-17T14:52:13.615Z,176
2023-01-17T14:53:57.321Z,171
2023-01-17T14:55:41.023Z,167
2023-01-17T14:57:24.729Z,161
2023-01-17T14:59:08.429Z,154
2023-01-17T15:00:52.128Z,149
2023-01-17T15:02:35.830Z,144
2023-01-17T15:04:19.632Z,139
2023-01-17T15:06:03.233Z,133
2023-01-17T15:07:46.970Z,126
2023-01-17T15:09:30.685Z,118
2023-01-17T15:11:14.344Z,112
2023-01-17T15:12:58.083Z,104
2023-01-17T15:14:41.865Z,98
2023-01-17T15:16:25.468Z,94
2023-01-17T15:18:09.160Z,88
2023-01-17T15:19:52.938Z,82
2023-01-17T15:21:36.563Z,75
2023-01-17T15:23:20.273Z,71
2023-01-17T15:25:03.999Z,66
2023-01-17T15:26:47.681Z,60
2023-01-17T15:28:31.381Z,56
2023-01-17T15:30:15.084Z,50
2023-01-17T15:31:58.793Z,45
2023-01-17T15:33:42.572Z,39
2023-01-17T15:35:26.185Z,36
2023-01-17T15:37:09.916Z,33
2023-01-17T15:38:53.600Z,27
2023-01-17T15:40:37.292Z,25
2023-01-17T15:42:21.009Z,23
2023-01-17T15:44:04.719Z,21
2023-01-17T15:45:48.404Z,19
2023-01-17T15:47:32.118Z,17
2023-01-17T15:49:15.815Z,14
2023-01-17T15:50:59.526Z,13
2023-01-17T15:52:43.211Z,11
2023-01-17T15:54:26.931Z,11
2023-01-17T15:56:10.673Z,11
2023-01-17T15:57:54.331Z,10
2023-01-17T15:59:38.040Z,10
2023-01-17T16:01:21.730Z,9
2023-01-17T16:03:05.440Z,6
2023-01-17T16:04:49.143Z,6
2023-01-17T16:06:32.847Z,6
2023-01-17T16:08:16.552Z,5
2023-01-17T16:10:00.303Z,5
2023-01-17T16:11:43.953Z,5
2023-01-17T16:13:27.663Z,5
2023-01-17T16:15:11.360Z,3
2023-01-17T16:16:55.083Z,3
2023-01-17T16:18:38.770Z,3
2023-01-17T16:20:22.469Z,3
2023-01-17T16:22:06.176Z,3
2023-01-17T16:23:49.867Z,3
2023-01-17T16:25:33.569Z,3
2023-01-17T16:29:00.978Z,2
2023-01-17T16:30:44.680Z,3
2023-01-17T16:32:28.391Z,3
2023-01-17T16:34:12.111Z,3
2023-01-17T16:35:55.798Z,3
2023-01-17T16:37:39.492Z,3
2023-01-17T16:39:23.192Z,2
2023-01-17T16:41:06.899Z,3
2023-01-17T16:42:50.592Z,3
2023-01-17T16:44:34.301Z,2
2023-01-17T16:46:17.999Z,3
2023-01-17T16:48:01.702Z,3
2023-01-17T16:49:45.408Z,3
2023-01-17T16:51:29.106Z,3
2023-01-17T16:53:12.817Z,3
2023-01-17T16:54:56.514Z,11
2023-01-17T16:56:40.219Z,12
2023-01-17T16:58:23.921Z,12
2023-01-17T17:00:07.625Z,12
2023-01-17T17:01:51.324Z,13
2023-01-17T17:03:35.036Z,12
2023-01-17T17:05:18.732Z,12
2023-01-17T17:07:02.453Z,20
2023-01-17T17:08:46.142Z,19
2023-01-17T17:10:29.827Z,20
2023-01-17T17:12:13.545Z,19
2023-01-17T17:13:57.364Z,19
2023-01-17T17:15:40.942Z,20
2023-01-17T17:17:24.748Z,20
2023-01-17T17:19:08.356Z,20
2023-01-17T17:20:52.108Z,20
2023-01-17T17:22:35.748Z,20
2023-01-17T17:24:19.455Z,20
2023-01-17T17:26:03.184Z,19
2023-01-17T17:27:46.858Z,19
2023-01-17T17:29:30.652Z,18
2023-01-17T17:31:14.282Z,19
2023-01-17T17:32:57.990Z,18
2023-01-17T17:34:41.693Z,19
2023-01-17T17:36:25.370Z,18
2023-01-17T17:38:09.073Z,19
2023-01-17T17:39:52.806Z,18
2023-01-17T17:41:36.480Z,19
2023-01-17T17:43:20.180Z,19
2023-01-17T17:45:03.900Z,19
2023-01-17T17:46:47.588Z,19
2023-01-17T17:48:31.295Z,19
2023-01-17T17:50:14.993Z,19
2023-01-17T17:51:58.697Z,19
2023-01-17T17:53:42.407Z,19
2023-01-17T17:57:09.801Z,19
2023-01-17T17:58:53.514Z,19
2023-01-17T18:00:37.212Z,18
2023-01-17T18:02:20.976Z,19
2023-01-17T18:04:04.611Z,19
2023-01-17T18:05:48.315Z,20
2023-01-17T18:07:32.022Z,18
2023-01-17T18:09:15.763Z,19
2023-01-17T18:10:59.418Z,19
2023-01-17T18:12:43.123Z,19
2023-01-17T18:14:26.830Z,19
2023-01-17T18:16:10.660Z,20
2023-01-17T18:17:54.246Z,18
2023-01-17T18:19:37.965Z,19
2023-01-17T18:21:21.635Z,19
2023-01-17T18:23:05.342Z,18
2023-01-17T18:24:49.064Z,19
2023-01-17T18:26:32.741Z,19
2023-01-17T18:28:16.450Z,19
2023-01-17T18:30:00.246Z,19
2023-01-17T18:31:43.863Z,19
2023-01-17T18:33:27.559Z,19
2023-01-17T18:35:11.261Z,19
2023-01-17T18:36:54.964Z,19
2023-01-17T18:38:38.670Z,19
2023-01-17T18:40:22.368Z,19
2023-01-17T18:42:06.162Z,19
2023-01-17T18:43:49.771Z,19
2023-01-17T18:45:33.485Z,19
2023-01-17T18:47:17.172Z,2
2023-01-17T18:49:00.889Z,3
2023-01-17T18:50:44.580Z,3
2023-01-17T18:52:28.365Z,2
2023-01-17T18:54:12.047Z,2
2023-01-17T18:55:55.683Z,2
2023-01-17T18:57:39.394Z,3
2023-01-17T18:59:23.133Z,2
2023-01-17T19:01:06.812Z,2
2023-01-17T19:02:50.516Z,2
2023-01-17T19:04:34.291Z,2
2023-01-17T19:06:17.913Z,3
2023-01-17T19:08:01.605Z,2
2023-01-17T19:09:45.386Z,2
2023-01-17T19:11:29.070Z,2
2023-01-17T19:13:12.718Z,3
2023-01-17T19:14:56.428Z,2
2023-01-17T19:16:40.142Z,2
2023-01-17T19:18:23.826Z,2
2023-01-17T19:20:07.549Z,2
2023-01-17T19:21:51.232Z,2
2023-01-17T19:23:34.940Z,11
2023-01-17T19:25:18.668Z,11
2023-01-17T19:27:02.407Z,10
2023-01-17T19:28:46.049Z,10
2023-01-17T19:30:29.812Z,2
2023-01-17T19:32:13.463Z,2
2023-01-17T19:33:57.206Z,2
2023-01-17T19:35:40.856Z,2
2023-01-17T19:37:24.562Z,3
2023-01-17T19:39:08.274Z,2
2023-01-17T19:40:51.969Z,2
2023-01-17T19:42:35.674Z,3
2023-01-17T19:44:19.367Z,2
2023-01-17T19:46:03.074Z,2
2023-01-17T19:47:46.788Z,2
2023-01-17T19:49:30.563Z,2
2023-01-17T19:51:14.200Z,2
2023-01-17T19:52:57.919Z,3
2023-01-17T19:54:41.677Z,2
2023-01-17T19:56:25.293Z,3
2023-01-17T19:58:08.988Z,2
2023-01-17T19:59:52.703Z,2
2023-01-17T20:01:36.406Z,2
2023-01-17T20:03:20.096Z,2
2023-01-17T20:05:03.802Z,2
2023-01-17T20:06:47.530Z,3
2023-01-17T20:08:31.311Z,3
2023-01-17T20:10:14.915Z,3
2023-01-17T20:11:58.662Z,3
2023-01-17T20:13:42.315Z,3
2023-01-17T20:15:26.036Z,2
2023-01-17T20:17:09.737Z,2
2023-01-17T20:18:53.467Z,2
2023-01-17T20:20:37.128Z,2
2023-01-17T20:22:20.886Z,3
2023-01-17T20:24:04.587Z,2
2023-01-17T20:25:48.227Z,3
2023-01-17T20:27:31.954Z,3
2023-01-17T20:29:15.841Z,3
2023-01-17T20:30:59.333Z,1
2023-01-17T20:32:43.037Z,2
2023-01-17T20:34:26.786Z,2
2023-01-17T20:36:10.585Z,2
2023-01-17T20:37:54.147Z,3
2023-01-17T20:39:37.891Z,2
2023-01-17T20:41:21.551Z,3
2023-01-17T20:43:05.258Z,2
2023-01-17T20:44:49.011Z,3
2023-01-17T20:46:32.665Z,3
2023-01-17T20:48:16.352Z,2
2023-01-17T20:50:00.135Z,2
2023-01-17T20:51:43.848Z,3
2023-01-17T20:53:27.473Z,3
2023-01-17T20:55:11.286Z,2
2023-01-17T20:56:54.883Z,2
2023-01-17T20:58:38.596Z,3
2023-01-17T21:00:22.274Z,2
2023-01-17T21:02:05.994Z,2
2023-01-17T21:03:49.680Z,2
2023-01-17T21:05:33.441Z,2
2023-01-17T21:07:17.087Z,2
2023-01-17T21:09:00.793Z,2
2023-01-17T21:10:44.498Z,2
2023-01-17T21:12:28.193Z,2
2023-01-17T21:14:11.964Z,2
2023-01-17T21:15:55.599Z,3
2023-01-17T21:17:39.305Z,3
2023-01-17T21:19:23.084Z,2
2023-01-17T21:21:06.711Z,2
2023-01-17T21:22:50.463Z,1
2023-01-17T21:24:34.116Z,11
2023-01-17T21:26:17.848Z,2
2023-01-17T21:28:01.517Z,2
2023-01-17T21:29:45.229Z,2
2023-01-17T21:31:28.937Z,2
2023-01-17T21:33:12.626Z,2
2023-01-17T21:34:56.338Z,1
2023-01-17T21:36:40.070Z,2
2023-01-17T21:38:23.738Z,3
2023-01-17T21:40:07.443Z,2
2023-01-17T21:41:51.150Z,1
2023-01-17T21:43:34.859Z,2
2023-01-17T21:45:18.585Z,2
2023-01-17T21:47:02.290Z,2
2023-01-17T21:48:45.962Z,2
2023-01-17T21:50:29.658Z,2
2023-01-17T21:52:13.361Z,3
2023-01-17T21:53:57.060Z,2
2023-01-17T21:55:40.760Z,2
2023-01-17T21:57:24.479Z,2
2023-01-17T21:59:08.333Z,2
2023-01-17T22:00:51.872Z,3
2023-01-17T22:02:35.572Z,2
2023-01-17T22:04:19.264Z,3
2023-01-17T22:06:02.994Z,2
2023-01-17T22:07:46.680Z,2
2023-01-17T22:09:30.462Z,2
2023-01-17T22:11:14.091Z,2
2023-01-17T22:12:57.815Z,2
2023-01-17T22:14:41.488Z,2
2023-01-17T22:16:25.192Z,1
2023-01-17T22:18:08.889Z,2
2023-01-17T22:19:52.604Z,2
2023-01-17T22:21:36.292Z,2
2023-01-17T22:23:20.016Z,2
2023-01-17T22:25:03.704Z,2
2023-01-17T22:26:47.406Z,2
2023-01-17T22:28:31.116Z,2
2023-01-17T22:30:14.809Z,2
2023-01-17T22:31:58.508Z,3
2023-01-17T22:33:42.214Z,2
2023-01-17T22:35:25.913Z,2
2023-01-17T22:37:09.633Z,3
2023-01-17T22:38:53.318Z,3
2023-01-17T22:40:37.015Z,3
2023-01-17T22:42:20.755Z,2
2023-01-17T22:44:04.489Z,1
2023-01-17T22:45:48.132Z,2
2023-01-17T22:47:31.835Z,2
2023-01-17T22:49:15.525Z,1
2023-01-17T22:50:59.243Z,2
2023-01-17T22:52:42.939Z,2
2023-01-17T22:54:26.641Z,2
2023-01-17T22:56:10.346Z,2
2023-01-17T22:57:54.063Z,2
2023-01-17T22:59:37.751Z,2
2023-01-17T23:01:21.462Z,2
2023-01-17T23:03:05.158Z,2
2023-01-17T23:04:48.861Z,2
2023-01-17T23:06:32.566Z,2
2023-01-17T23:08:16.262Z,2
2023-01-17T23:09:59.980Z,2
2023-01-17T23:11:43.670Z,2
2023-01-17T23:13:27.372Z,2
2023-01-17T23:15:11.089Z,3
2023-01-17T23:16:54.773Z,1
2023-01-17T23:18:38.478Z,2
2023-01-17T23:20:22.198Z,2
2023-01-17T23:22:05.881Z,2
2023-01-17T23:23:49.599Z,2
2023-01-17T23:25:33.287Z,11
2023-01-17T23:27:16.979Z,11
2023-01-17T23:29:00.688Z,11
2023-01-17T23:30:44.390Z,11
2023-01-17T23:32:28.096Z,2
2023-01-17T23:34:11.816Z,2
2023-01-17T23:35:55.516Z,3
2023-01-17T23:37:39.208Z,2
2023-01-17T23:39:22.899Z,3
2023-01-17T23:41:06.608Z,2
2023-01-17T23:42:50.317Z,2
2023-01-17T23:44:34.013Z,2
2023-01-17T23:46:17.718Z,2
2023-01-17T23:48:01.420Z,2
2023-01-17T23:49:45.121Z,2
2023-01-17T23:51:28.852Z,3
2023-01-17T23:53:12.521Z,2
2023-01-17T23:54:56.229Z,2
2023-01-17T23:56:39.940Z,10
2023-01-17T23:58:23.634Z,10
